KMVN/MVN METAR and TAF weather

Enter ICAO airport designator
Station Type Date Time Source
KMVN METAR 2019/12/08 10:56 UTC NOAA

KMVN 081056Z AUTO 00000KT 3SM BR CLR M02/M03 A3012 RMK AO2 SLP208 T10221033 FZRANO


Station Type Date Time Source
KMVN Decoded METAR 2019/12/08 10:56 UTC NOAA

Mount Vernon, Mount Vernon Airport, IL, United States (KMVN) 38-19N 088-52W
Dec 08, 2019 - 05:56 AM EST / 2019.12.08 1056 UTC
Wind: Calm:0
Visibility: 3 mile(s):0
Sky conditions: clear
Weather: mist
Temperature: 28.0 F (-2.2 C)
Dew Point: 26.1 F (-3.3 C)
Relative Humidity: 92%
Pressure (altimeter): 30.12 in. Hg (1019 hPa)
ob: KMVN 081056Z AUTO 00000KT 3SM BR CLR M02/M03 A3012 RMK AO2 SLP208 T10221033 FZRANO
cycle: 11

Station Type Date Time Source
KMVN TAF 2019/12/08 11:45 UTC NOAA

TAF
AMD KMVN 081042Z 0811/0906 00000KT 3SM BR SKC
TEMPO 0811/0813 1 1/2SM BR
FM081300 VRB04KT P6SM BKN150
FM081600 19011G19KT P6SM BKN070
FM090100 18009KT P6SM OVC035
FM090300 18008KT P6SM OVC017

Example: see airport list